sensor_id;sensor_type;location;lat;lon;timestamp;P1;durP1;ratioP1;P2;durP2;ratioP2
549;SDS011;20066;48.764;9.176;2023-11-19T00:01:02;10.77;;;3.50;;
549;SDS011;20066;48.764;9.176;2023-11-19T00:03:32;5.95;;;2.80;;
549;SDS011;20066;48.764;9.176;2023-11-19T00:06:02;9.00;;;3.33;;
549;SDS011;20066;48.764;9.176;2023-11-19T00:08:30;4.57;;;1.92;;
549;SDS011;20066;48.764;9.176;2023-11-19T00:10:58;8.55;;;3.35;;
549;SDS011;20066;48.764;9.176;2023-11-19T00:13:29;7.43;;;2.38;;
549;SDS011;20066;48.764;9.176;2023-11-19T00:15:57;11.02;;;3.50;;
549;SDS011;20066;48.764;9.176;2023-11-19T00:18:24;10.82;;;3.90;;
549;SDS011;20066;48.764;9.176;2023-11-19T00:20:52;10.73;;;1.92;;
549;SDS011;20066;48.764;9.176;2023-11-19T00:23:20;8.18;;;3.03;;
549;SDS011;20066;48.764;9.176;2023-11-19T00:25:49;5.28;;;2.50;;
549;SDS011;20066;48.764;9.176;2023-11-19T00:28:17;8.13;;;3.75;;
549;SDS011;20066;48.764;9.176;2023-11-19T00:30:46;7.47;;;3.30;;
549;SDS011;20066;48.764;9.176;2023-11-19T00:33:15;10.07;;;3.60;;
549;SDS011;20066;48.764;9.176;2023-11-19T00:35:44;6.82;;;2.83;;
549;SDS011;20066;48.764;9.176;2023-11-19T00:38:14;11.45;;;3.97;;
549;SDS011;20066;48.764;9.176;2023-11-19T00:40:41;6.80;;;3.85;;
549;SDS011;20066;48.764;9.176;2023-11-19T00:43:10;4.57;;;2.80;;
549;SDS011;20066;48.764;9.176;2023-11-19T00:45:38;7.65;;;2.65;;
549;SDS011;20066;48.764;9.176;2023-11-19T00:48:07;13.15;;;3.85;;
549;SDS011;20066;48.764;9.176;2023-11-19T00:50:35;8.98;;;2.97;;
549;SDS011;20066;48.764;9.176;2023-11-19T00:53:05;7.65;;;2.65;;
549;SDS011;20066;48.764;9.176;2023-11-19T00:55:33;6.18;;;2.35;;
549;SDS011;20066;48.764;9.176;2023-11-19T00:58:11;11.85;;;4.20;;
549;SDS011;20066;48.764;9.176;2023-11-19T01:00:39;5.38;;;2.60;;
549;SDS011;20066;48.764;9.176;2023-11-19T01:03:08;8.30;;;3.22;;
549;SDS011;20066;48.764;9.176;2023-11-19T01:05:36;7.40;;;2.60;;
549;SDS011;20066;48.764;9.176;2023-11-19T01:08:04;5.90;;;2.20;;
549;SDS011;20066;48.764;9.176;2023-11-19T01:10:32;6.32;;;2.50;;
549;SDS011;20066;48.764;9.176;2023-11-19T01:13:00;7.20;;;2.45;;
549;SDS011;20066;48.764;9.176;2023-11-19T01:15:29;2.38;;;1.40;;
549;SDS011;20066;48.764;9.176;2023-11-19T01:17:57;13.80;;;3.00;;
549;SDS011;20066;48.764;9.176;2023-11-19T01:20:27;9.48;;;2.30;;
549;SDS011;20066;48.764;9.176;2023-11-19T01:22:56;4.10;;;1.90;;
549;SDS011;20066;48.764;9.176;2023-11-19T01:25:23;7.97;;;2.75;;
549;SDS011;20066;48.764;9.176;2023-11-19T01:27:51;5.47;;;1.92;;
549;SDS011;20066;48.764;9.176;2023-11-19T01:30:19;3.55;;;1.52;;
549;SDS011;20066;48.764;9.176;2023-11-19T01:32:47;3.43;;;1.80;;
549;SDS011;20066;48.764;9.176;2023-11-19T01:35:15;7.07;;;1.50;;
549;SDS011;20066;48.764;9.176;2023-11-19T01:37:44;7.10;;;1.90;;
549;SDS011;20066;48.764;9.176;2023-11-19T01:40:12;4.15;;;1.70;;
549;SDS011;20066;48.764;9.176;2023-11-19T01:42:40;3.35;;;1.33;;
549;SDS011;20066;48.764;9.176;2023-11-19T01:45:08;8.10;;;2.73;;
549;SDS011;20066;48.764;9.176;2023-11-19T01:47:37;7.23;;;2.00;;
549;SDS011;20066;48.764;9.176;2023-11-19T01:50:07;4.65;;;2.00;;
549;SDS011;20066;48.764;9.176;2023-11-19T01:52:35;2.50;;;1.73;;
549;SDS011;20066;48.764;9.176;2023-11-19T01:55:07;3.38;;;1.60;;
549;SDS011;20066;48.764;9.176;2023-11-19T01:57:37;10.15;;;3.10;;
549;SDS011;20066;48.764;9.176;2023-11-19T02:00:07;1.98;;;1.20;;
549;SDS011;20066;48.764;9.176;2023-11-19T02:02:39;3.28;;;1.30;;
549;SDS011;20066;48.764;9.176;2023-11-19T02:05:08;1.40;;;0.90;;
549;SDS011;20066;48.764;9.176;2023-11-19T02:07:36;9.32;;;1.17;;
549;SDS011;20066;48.764;9.176;2023-11-19T02:10:04;2.10;;;1.10;;
549;SDS011;20066;48.764;9.176;2023-11-19T02:12:39;2.57;;;1.17;;
549;SDS011;20066;48.764;9.176;2023-11-19T02:15:10;1.20;;;1.00;;
549;SDS011;20066;48.764;9.176;2023-11-19T02:17:44;2.22;;;1.40;;
549;SDS011;20066;48.764;9.176;2023-11-19T02:20:12;3.05;;;1.25;;
549;SDS011;20066;48.764;9.176;2023-11-19T02:22:41;3.88;;;1.50;;
549;SDS011;20066;48.764;9.176;2023-11-19T02:25:12;2.00;;;1.10;;
549;SDS011;20066;48.764;9.176;2023-11-19T02:27:51;1.93;;;1.33;;
549;SDS011;20066;48.764;9.176;2023-11-19T02:30:23;1.20;;;0.73;;
549;SDS011;20066;48.764;9.176;2023-11-19T02:32:53;1.33;;;0.90;;
549;SDS011;20066;48.764;9.176;2023-11-19T02:35:23;1.37;;;0.80;;
549;SDS011;20066;48.764;9.176;2023-11-19T02:37:52;2.60;;;1.10;;
549;SDS011;20066;48.764;9.176;2023-11-19T02:40:20;1.20;;;0.83;;
549;SDS011;20066;48.764;9.176;2023-11-19T02:42:52;1.23;;;1.07;;
549;SDS011;20066;48.764;9.176;2023-11-19T02:45:20;2.37;;;1.10;;
549;SDS011;20066;48.764;9.176;2023-11-19T02:47:48;0.87;;;0.60;;
549;SDS011;20066;48.764;9.176;2023-11-19T02:50:17;2.97;;;1.00;;
549;SDS011;20066;48.764;9.176;2023-11-19T02:52:51;5.03;;;1.07;;
549;SDS011;20066;48.764;9.176;2023-11-19T02:55:22;1.30;;;1.00;;
549;SDS011;20066;48.764;9.176;2023-11-19T02:57:52;1.10;;;1.10;;
549;SDS011;20066;48.764;9.176;2023-11-19T03:00:20;1.80;;;0.87;;
549;SDS011;20066;48.764;9.176;2023-11-19T03:02:59;1.73;;;0.93;;
549;SDS011;20066;48.764;9.176;2023-11-19T03:05:36;2.67;;;0.77;;
549;SDS011;20066;48.764;9.176;2023-11-19T03:08:04;1.40;;;0.80;;
549;SDS011;20066;48.764;9.176;2023-11-19T03:10:32;1.57;;;0.90;;
549;SDS011;20066;48.764;9.176;2023-11-19T03:13:02;2.27;;;1.00;;
549;SDS011;20066;48.764;9.176;2023-11-19T03:15:30;1.73;;;0.90;;
549;SDS011;20066;48.764;9.176;2023-11-19T03:17:58;1.27;;;0.87;;
549;SDS011;20066;48.764;9.176;2023-11-19T03:20:25;1.50;;;1.00;;
549;SDS011;20066;48.764;9.176;2023-11-19T03:22:55;1.50;;;1.00;;
549;SDS011;20066;48.764;9.176;2023-11-19T03:25:24;2.60;;;1.10;;
549;SDS011;20066;48.764;9.176;2023-11-19T03:27:53;1.40;;;1.00;;
549;SDS011;20066;48.764;9.176;2023-11-19T03:30:22;1.97;;;0.87;;
549;SDS011;20066;48.764;9.176;2023-11-19T03:33:00;1.60;;;0.93;;
549;SDS011;20066;48.764;9.176;2023-11-19T03:35:28;1.10;;;0.80;;
549;SDS011;20066;48.764;9.176;2023-11-19T03:37:57;1.63;;;0.90;;
549;SDS011;20066;48.764;9.176;2023-11-19T03:40:25;1.40;;;0.77;;
549;SDS011;20066;48.764;9.176;2023-11-19T03:42:52;1.33;;;0.97;;
549;SDS011;20066;48.764;9.176;2023-11-19T03:45:20;1.30;;;0.67;;
549;SDS011;20066;48.764;9.176;2023-11-19T03:47:50;1.40;;;1.10;;
549;SDS011;20066;48.764;9.176;2023-11-19T03:50:18;4.07;;;1.10;;
549;SDS011;20066;48.764;9.176;2023-11-19T03:52:47;3.23;;;0.70;;
549;SDS011;20066;48.764;9.176;2023-11-19T03:55:15;3.30;;;0.67;;
549;SDS011;20066;48.764;9.176;2023-11-19T03:57:43;1.30;;;0.70;;
549;SDS011;20066;48.764;9.176;2023-11-19T04:00:11;2.83;;;0.80;;
549;SDS011;20066;48.764;9.176;2023-11-19T04:02:40;1.17;;;0.70;;
549;SDS011;20066;48.764;9.176;2023-11-19T04:05:10;1.53;;;0.80;;
549;SDS011;20066;48.764;9.176;2023-11-19T04:07:38;2.40;;;0.90;;
549;SDS011;20066;48.764;9.176;2023-11-19T04:10:06;0.97;;;0.60;;
549;SDS011;20066;48.764;9.176;2023-11-19T04:12:34;2.57;;;0.80;;
549;SDS011;20066;48.764;9.176;2023-11-19T04:15:03;1.17;;;0.90;;
549;SDS011;20066;48.764;9.176;2023-11-19T04:17:32;1.20;;;0.80;;
549;SDS011;20066;48.764;9.176;2023-11-19T04:20:00;0.83;;;0.70;;
549;SDS011;20066;48.764;9.176;2023-11-19T04:22:29;1.43;;;0.80;;
549;SDS011;20066;48.764;9.176;2023-11-19T04:24:57;1.00;;;0.90;;
549;SDS011;20066;48.764;9.176;2023-11-19T04:27:25;1.30;;;0.87;;
549;SDS011;20066;48.764;9.176;2023-11-19T04:29:53;1.10;;;0.80;;
549;SDS011;20066;48.764;9.176;2023-11-19T04:32:22;0.90;;;0.67;;
549;SDS011;20066;48.764;9.176;2023-11-19T04:34:51;1.20;;;0.80;;
549;SDS011;20066;48.764;9.176;2023-11-19T04:37:19;1.00;;;0.80;;
549;SDS011;20066;48.764;9.176;2023-11-19T04:39:48;0.87;;;0.60;;
549;SDS011;20066;48.764;9.176;2023-11-19T04:42:16;1.10;;;0.83;;
549;SDS011;20066;48.764;9.176;2023-11-19T04:44:44;0.90;;;0.60;;
549;SDS011;20066;48.764;9.176;2023-11-19T04:47:12;0.90;;;0.80;;
549;SDS011;20066;48.764;9.176;2023-11-19T04:49:40;1.00;;;0.70;;
549;SDS011;20066;48.764;9.176;2023-11-19T04:52:09;1.10;;;0.90;;
549;SDS011;20066;48.764;9.176;2023-11-19T04:54:40;1.00;;;0.70;;
549;SDS011;20066;48.764;9.176;2023-11-19T04:57:10;0.87;;;0.60;;
549;SDS011;20066;48.764;9.176;2023-11-19T04:59:38;0.90;;;0.60;;
549;SDS011;20066;48.764;9.176;2023-11-19T05:02:06;1.10;;;0.77;;
549;SDS011;20066;48.764;9.176;2023-11-19T05:04:34;0.93;;;0.67;;
549;SDS011;20066;48.764;9.176;2023-11-19T05:07:04;2.57;;;0.77;;
549;SDS011;20066;48.764;9.176;2023-11-19T05:09:31;2.40;;;0.80;;
549;SDS011;20066;48.764;9.176;2023-11-19T05:11:59;1.20;;;0.90;;
549;SDS011;20066;48.764;9.176;2023-11-19T05:14:30;1.10;;;0.80;;
549;SDS011;20066;48.764;9.176;2023-11-19T05:16:57;2.00;;;1.10;;
549;SDS011;20066;48.764;9.176;2023-11-19T05:19:25;3.10;;;0.80;;
549;SDS011;20066;48.764;9.176;2023-11-19T05:21:53;1.30;;;0.70;;
549;SDS011;20066;48.764;9.176;2023-11-19T05:24:21;1.10;;;0.90;;
549;SDS011;20066;48.764;9.176;2023-11-19T05:26:49;1.00;;;1.00;;
549;SDS011;20066;48.764;9.176;2023-11-19T05:29:17;2.30;;;0.70;;
549;SDS011;20066;48.764;9.176;2023-11-19T05:31:46;0.90;;;0.63;;
549;SDS011;20066;48.764;9.176;2023-11-19T05:34:14;0.90;;;0.57;;
549;SDS011;20066;48.764;9.176;2023-11-19T05:36:42;1.00;;;0.60;;
549;SDS011;20066;48.764;9.176;2023-11-19T05:39:10;5.90;;;0.93;;
549;SDS011;20066;48.764;9.176;2023-11-19T05:41:38;1.30;;;0.80;;
549;SDS011;20066;48.764;9.176;2023-11-19T05:44:06;2.70;;;0.90;;
549;SDS011;20066;48.764;9.176;2023-11-19T05:46:34;2.70;;;0.80;;
549;SDS011;20066;48.764;9.176;2023-11-19T05:49:08;1.20;;;0.80;;
549;SDS011;20066;48.764;9.176;2023-11-19T05:51:36;1.53;;;0.77;;
549;SDS011;20066;48.764;9.176;2023-11-19T05:54:05;1.10;;;0.90;;
549;SDS011;20066;48.764;9.176;2023-11-19T05:56:34;0.90;;;0.70;;
549;SDS011;20066;48.764;9.176;2023-11-19T05:59:02;1.73;;;0.90;;
549;SDS011;20066;48.764;9.176;2023-11-19T06:01:33;1.20;;;0.80;;
549;SDS011;20066;48.764;9.176;2023-11-19T06:04:02;6.50;;;1.10;;
549;SDS011;20066;48.764;9.176;2023-11-19T06:06:32;1.40;;;0.87;;
549;SDS011;20066;48.764;9.176;2023-11-19T06:09:00;1.20;;;0.80;;
549;SDS011;20066;48.764;9.176;2023-11-19T06:11:35;1.30;;;0.60;;
549;SDS011;20066;48.764;9.176;2023-11-19T06:14:03;1.27;;;0.87;;
549;SDS011;20066;48.764;9.176;2023-11-19T06:16:31;1.00;;;0.70;;
549;SDS011;20066;48.764;9.176;2023-11-19T06:18:59;1.07;;;0.67;;
549;SDS011;20066;48.764;9.176;2023-11-19T06:21:27;2.20;;;0.70;;
549;SDS011;20066;48.764;9.176;2023-11-19T06:23:56;1.00;;;0.80;;
549;SDS011;20066;48.764;9.176;2023-11-19T06:26:25;1.13;;;0.93;;
549;SDS011;20066;48.764;9.176;2023-11-19T06:28:54;1.57;;;0.73;;
549;SDS011;20066;48.764;9.176;2023-11-19T06:31:22;1.20;;;0.73;;
549;SDS011;20066;48.764;9.176;2023-11-19T06:33:50;1.00;;;0.90;;
549;SDS011;20066;48.764;9.176;2023-11-19T06:36:18;1.30;;;0.80;;
549;SDS011;20066;48.764;9.176;2023-11-19T06:38:46;0.90;;;0.70;;
549;SDS011;20066;48.764;9.176;2023-11-19T06:41:15;0.90;;;0.70;;
549;SDS011;20066;48.764;9.176;2023-11-19T06:43:43;1.33;;;0.93;;
549;SDS011;20066;48.764;9.176;2023-11-19T06:46:17;1.17;;;0.87;;
549;SDS011;20066;48.764;9.176;2023-11-19T06:48:45;1.20;;;0.80;;
549;SDS011;20066;48.764;9.176;2023-11-19T06:51:13;1.10;;;0.70;;
549;SDS011;20066;48.764;9.176;2023-11-19T06:53:42;1.00;;;0.63;;
549;SDS011;20066;48.764;9.176;2023-11-19T06:56:19;2.60;;;0.70;;
549;SDS011;20066;48.764;9.176;2023-11-19T06:58:48;1.10;;;0.80;;
549;SDS011;20066;48.764;9.176;2023-11-19T07:01:16;1.40;;;0.90;;
549;SDS011;20066;48.764;9.176;2023-11-19T07:03:45;1.30;;;1.00;;
549;SDS011;20066;48.764;9.176;2023-11-19T07:06:14;2.10;;;1.17;;
549;SDS011;20066;48.764;9.176;2023-11-19T07:08:42;1.17;;;1.10;;
549;SDS011;20066;48.764;9.176;2023-11-19T07:11:11;1.10;;;0.80;;
549;SDS011;20066;48.764;9.176;2023-11-19T07:13:42;1.70;;;0.90;;
549;SDS011;20066;48.764;9.176;2023-11-19T07:16:10;1.20;;;0.90;;
549;SDS011;20066;48.764;9.176;2023-11-19T07:18:38;1.30;;;0.90;;
549;SDS011;20066;48.764;9.176;2023-11-19T07:21:06;1.37;;;1.00;;
549;SDS011;20066;48.764;9.176;2023-11-19T07:23:37;2.57;;;1.10;;
549;SDS011;20066;48.764;9.176;2023-11-19T07:26:05;10.10;;;1.13;;
549;SDS011;20066;48.764;9.176;2023-11-19T07:28:36;1.50;;;1.10;;
549;SDS011;20066;48.764;9.176;2023-11-19T07:31:05;1.53;;;1.30;;
549;SDS011;20066;48.764;9.176;2023-11-19T07:33:34;2.53;;;1.20;;
549;SDS011;20066;48.764;9.176;2023-11-19T07:36:02;1.80;;;1.10;;
549;SDS011;20066;48.764;9.176;2023-11-19T07:38:30;1.67;;;1.20;;
549;SDS011;20066;48.764;9.176;2023-11-19T07:40:58;1.67;;;1.43;;
549;SDS011;20066;48.764;9.176;2023-11-19T07:43:26;1.40;;;0.90;;
549;SDS011;20066;48.764;9.176;2023-11-19T07:45:54;2.00;;;1.43;;
549;SDS011;20066;48.764;9.176;2023-11-19T07:48:23;1.50;;;1.30;;
549;SDS011;20066;48.764;9.176;2023-11-19T07:50:51;4.70;;;1.30;;
549;SDS011;20066;48.764;9.176;2023-11-19T07:53:20;1.83;;;1.07;;
549;SDS011;20066;48.764;9.176;2023-11-19T07:55:47;1.50;;;1.23;;
549;SDS011;20066;48.764;9.176;2023-11-19T07:58:15;1.47;;;1.10;;
549;SDS011;20066;48.764;9.176;2023-11-19T08:00:44;1.17;;;0.93;;
549;SDS011;20066;48.764;9.176;2023-11-19T08:03:12;2.73;;;1.13;;
549;SDS011;20066;48.764;9.176;2023-11-19T08:05:42;1.33;;;1.10;;
549;SDS011;20066;48.764;9.176;2023-11-19T08:08:10;1.73;;;1.00;;
549;SDS011;20066;48.764;9.176;2023-11-19T08:10:38;2.30;;;0.90;;
549;SDS011;20066;48.764;9.176;2023-11-19T08:13:06;1.17;;;0.90;;
549;SDS011;20066;48.764;9.176;2023-11-19T08:15:34;1.20;;;0.90;;
549;SDS011;20066;48.764;9.176;2023-11-19T08:18:02;2.43;;;1.10;;
549;SDS011;20066;48.764;9.176;2023-11-19T08:20:32;1.17;;;0.80;;
549;SDS011;20066;48.764;9.176;2023-11-19T08:23:01;1.83;;;0.93;;
549;SDS011;20066;48.764;9.176;2023-11-19T08:25:30;1.20;;;0.83;;
549;SDS011;20066;48.764;9.176;2023-11-19T08:27:59;2.07;;;1.20;;
549;SDS011;20066;48.764;9.176;2023-11-19T08:30:27;1.00;;;0.70;;
549;SDS011;20066;48.764;9.176;2023-11-19T08:32:55;1.50;;;0.90;;
549;SDS011;20066;48.764;9.176;2023-11-19T08:35:25;3.17;;;0.87;;
549;SDS011;20066;48.764;9.176;2023-11-19T08:37:53;1.27;;;1.13;;
549;SDS011;20066;48.764;9.176;2023-11-19T08:40:22;1.30;;;0.80;;
549;SDS011;20066;48.764;9.176;2023-11-19T08:42:50;1.30;;;0.90;;
549;SDS011;20066;48.764;9.176;2023-11-19T08:45:18;1.40;;;0.90;;
549;SDS011;20066;48.764;9.176;2023-11-19T08:47:45;1.27;;;1.07;;
549;SDS011;20066;48.764;9.176;2023-11-19T08:50:13;2.87;;;1.00;;
549;SDS011;20066;48.764;9.176;2023-11-19T08:52:41;5.70;;;1.10;;
549;SDS011;20066;48.764;9.176;2023-11-19T08:55:09;1.30;;;0.77;;
549;SDS011;20066;48.764;9.176;2023-11-19T08:57:40;19.33;;;2.70;;
549;SDS011;20066;48.764;9.176;2023-11-19T09:00:09;1.67;;;0.77;;
549;SDS011;20066;48.764;9.176;2023-11-19T09:02:40;1.47;;;1.00;;
549;SDS011;20066;48.764;9.176;2023-11-19T09:05:09;1.50;;;1.07;;
549;SDS011;20066;48.764;9.176;2023-11-19T09:07:39;1.60;;;1.07;;
549;SDS011;20066;48.764;9.176;2023-11-19T09:10:07;1.73;;;0.87;;
549;SDS011;20066;48.764;9.176;2023-11-19T09:12:38;1.53;;;1.00;;
549;SDS011;20066;48.764;9.176;2023-11-19T09:15:07;1.50;;;1.10;;
549;SDS011;20066;48.764;9.176;2023-11-19T09:17:37;1.23;;;0.90;;
549;SDS011;20066;48.764;9.176;2023-11-19T09:20:06;2.33;;;1.00;;
549;SDS011;20066;48.764;9.176;2023-11-19T09:22:35;1.63;;;0.80;;
549;SDS011;20066;48.764;9.176;2023-11-19T09:25:03;2.13;;;1.10;;
549;SDS011;20066;48.764;9.176;2023-11-19T09:27:32;1.50;;;1.00;;
549;SDS011;20066;48.764;9.176;2023-11-19T09:30:01;2.47;;;1.17;;
549;SDS011;20066;48.764;9.176;2023-11-19T09:32:30;1.20;;;0.90;;
549;SDS011;20066;48.764;9.176;2023-11-19T09:34:58;2.87;;;1.10;;
549;SDS011;20066;48.764;9.176;2023-11-19T09:37:26;1.30;;;1.00;;
549;SDS011;20066;48.764;9.176;2023-11-19T09:39:54;3.00;;;1.10;;
549;SDS011;20066;48.764;9.176;2023-11-19T09:42:23;1.60;;;0.97;;
549;SDS011;20066;48.764;9.176;2023-11-19T09:44:51;2.33;;;1.30;;
549;SDS011;20066;48.764;9.176;2023-11-19T09:47:22;2.17;;;1.20;;
549;SDS011;20066;48.764;9.176;2023-11-19T09:49:50;1.53;;;0.90;;
549;SDS011;20066;48.764;9.176;2023-11-19T09:52:23;2.60;;;1.47;;
549;SDS011;20066;48.764;9.176;2023-11-19T09:54:51;3.50;;;1.83;;
549;SDS011;20066;48.764;9.176;2023-11-19T09:57:19;2.30;;;1.43;;
549;SDS011;20066;48.764;9.176;2023-11-19T09:59:47;2.00;;;1.40;;
549;SDS011;20066;48.764;9.176;2023-11-19T10:02:15;1.60;;;1.00;;
549;SDS011;20066;48.764;9.176;2023-11-19T10:04:46;1.97;;;1.10;;
549;SDS011;20066;48.764;9.176;2023-11-19T10:07:15;4.03;;;1.33;;
549;SDS011;20066;48.764;9.176;2023-11-19T10:09:43;3.33;;;1.03;;
549;SDS011;20066;48.764;9.176;2023-11-19T10:12:13;2.27;;;1.27;;
549;SDS011;20066;48.764;9.176;2023-11-19T10:14:42;2.67;;;1.10;;
549;SDS011;20066;48.764;9.176;2023-11-19T10:17:11;1.60;;;1.20;;
549;SDS011;20066;48.764;9.176;2023-11-19T10:19:40;2.80;;;1.23;;
549;SDS011;20066;48.764;9.176;2023-11-19T10:22:10;2.83;;;1.30;;
549;SDS011;20066;48.764;9.176;2023-11-19T10:24:38;2.43;;;1.30;;
549;SDS011;20066;48.764;9.176;2023-11-19T10:27:14;2.03;;;1.20;;
549;SDS011;20066;48.764;9.176;2023-11-19T10:29:43;1.70;;;1.07;;
549;SDS011;20066;48.764;9.176;2023-11-19T10:32:13;3.00;;;1.03;;
549;SDS011;20066;48.764;9.176;2023-11-19T10:34:52;4.63;;;0.90;;
549;SDS011;20066;48.764;9.176;2023-11-19T10:37:33;2.03;;;1.00;;
549;SDS011;20066;48.764;9.176;2023-11-19T10:40:04;2.20;;;0.97;;
549;SDS011;20066;48.764;9.176;2023-11-19T10:42:37;1.60;;;0.97;;
549;SDS011;20066;48.764;9.176;2023-11-19T10:45:05;1.77;;;1.00;;
549;SDS011;20066;48.764;9.176;2023-11-19T10:47:51;3.30;;;1.33;;
549;SDS011;20066;48.764;9.176;2023-11-19T10:50:19;1.73;;;1.07;;
549;SDS011;20066;48.764;9.176;2023-11-19T10:52:48;4.40;;;1.17;;
549;SDS011;20066;48.764;9.176;2023-11-19T10:55:18;2.10;;;0.90;;
549;SDS011;20066;48.764;9.176;2023-11-19T10:57:50;2.83;;;1.20;;
549;SDS011;20066;48.764;9.176;2023-11-19T11:00:19;2.07;;;1.20;;
549;SDS011;20066;48.764;9.176;2023-11-19T11:02:50;2.10;;;1.20;;
549;SDS011;20066;48.764;9.176;2023-11-19T11:05:24;2.03;;;0.90;;
549;SDS011;20066;48.764;9.176;2023-11-19T11:07:56;5.87;;;1.20;;
549;SDS011;20066;48.764;9.176;2023-11-19T11:10:25;1.90;;;1.00;;
549;SDS011;20066;48.764;9.176;2023-11-19T11:12:54;1.53;;;0.90;;
549;SDS011;20066;48.764;9.176;2023-11-19T11:15:26;1.47;;;1.00;;
549;SDS011;20066;48.764;9.176;2023-11-19T11:17:57;2.37;;;1.10;;
549;SDS011;20066;48.764;9.176;2023-11-19T11:20:28;3.07;;;1.27;;
549;SDS011;20066;48.764;9.176;2023-11-19T11:23:02;2.13;;;1.20;;
549;SDS011;20066;48.764;9.176;2023-11-19T11:25:51;2.80;;;1.27;;
549;SDS011;20066;48.764;9.176;2023-11-19T11:28:29;1.40;;;0.97;;
549;SDS011;20066;48.764;9.176;2023-11-19T11:31:08;2.70;;;1.23;;
549;SDS011;20066;48.764;9.176;2023-11-19T11:33:48;1.60;;;1.10;;
549;SDS011;20066;48.764;9.176;2023-11-19T11:36:53;2.60;;;1.07;;
549;SDS011;20066;48.764;9.176;2023-11-19T11:39:31;1.97;;;1.00;;
549;SDS011;20066;48.764;9.176;2023-11-19T11:42:30;1.23;;;1.00;;
549;SDS011;20066;48.764;9.176;2023-11-19T11:44:59;2.03;;;1.13;;
549;SDS011;20066;48.764;9.176;2023-11-19T11:50:32;3.77;;;1.30;;
549;SDS011;20066;48.764;9.176;2023-11-19T11:53:18;2.77;;;1.27;;
549;SDS011;20066;48.764;9.176;2023-11-19T11:55:54;3.53;;;1.20;;
549;SDS011;20066;48.764;9.176;2023-11-19T11:58:29;3.47;;;1.27;;
549;SDS011;20066;48.764;9.176;2023-11-19T12:01:00;2.00;;;1.00;;
549;SDS011;20066;48.764;9.176;2023-11-19T12:03:32;4.53;;;1.43;;
549;SDS011;20066;48.764;9.176;2023-11-19T12:06:01;1.60;;;0.90;;
549;SDS011;20066;48.764;9.176;2023-11-19T12:08:30;3.47;;;1.07;;
549;SDS011;20066;48.764;9.176;2023-11-19T12:11:00;1.83;;;0.90;;
549;SDS011;20066;48.764;9.176;2023-11-19T12:16:33;4.03;;;1.23;;
549;SDS011;20066;48.764;9.176;2023-11-19T12:19:04;2.07;;;1.10;;
549;SDS011;20066;48.764;9.176;2023-11-19T12:21:33;1.97;;;0.70;;
549;SDS011;20066;48.764;9.176;2023-11-19T12:24:04;1.30;;;0.83;;
549;SDS011;20066;48.764;9.176;2023-11-19T12:26:36;1.73;;;0.80;;
549;SDS011;20066;48.764;9.176;2023-11-19T12:29:05;2.00;;;0.80;;
549;SDS011;20066;48.764;9.176;2023-11-19T12:31:35;1.90;;;0.90;;
549;SDS011;20066;48.764;9.176;2023-11-19T12:34:10;2.33;;;0.90;;
549;SDS011;20066;48.764;9.176;2023-11-19T12:36:40;2.20;;;1.00;;
549;SDS011;20066;48.764;9.176;2023-11-19T12:39:11;3.90;;;1.30;;
549;SDS011;20066;48.764;9.176;2023-11-19T12:41:52;2.50;;;1.30;;
549;SDS011;20066;48.764;9.176;2023-11-19T12:44:21;5.30;;;1.13;;
549;SDS011;20066;48.764;9.176;2023-11-19T12:46:59;2.10;;;1.13;;
549;SDS011;20066;48.764;9.176;2023-11-19T12:49:28;2.10;;;1.30;;
549;SDS011;20066;48.764;9.176;2023-11-19T12:51:56;2.60;;;0.90;;
549;SDS011;20066;48.764;9.176;2023-11-19T12:54:32;2.13;;;1.20;;
549;SDS011;20066;48.764;9.176;2023-11-19T12:57:02;1.77;;;1.00;;
549;SDS011;20066;48.764;9.176;2023-11-19T12:59:31;1.77;;;1.00;;
549;SDS011;20066;48.764;9.176;2023-11-19T13:01:59;2.17;;;1.30;;
549;SDS011;20066;48.764;9.176;2023-11-19T13:04:29;2.77;;;1.20;;
549;SDS011;20066;48.764;9.176;2023-11-19T13:06:58;1.43;;;1.00;;
549;SDS011;20066;48.764;9.176;2023-11-19T13:09:29;2.07;;;1.10;;
549;SDS011;20066;48.764;9.176;2023-11-19T13:11:57;3.20;;;1.20;;
549;SDS011;20066;48.764;9.176;2023-11-19T13:14:36;2.33;;;1.10;;
549;SDS011;20066;48.764;9.176;2023-11-19T13:17:05;2.40;;;1.10;;
549;SDS011;20066;48.764;9.176;2023-11-19T13:19:33;2.13;;;1.30;;
549;SDS011;20066;48.764;9.176;2023-11-19T13:22:01;2.97;;;0.83;;
549;SDS011;20066;48.764;9.176;2023-11-19T13:24:30;1.50;;;0.90;;
549;SDS011;20066;48.764;9.176;2023-11-19T13:26:58;3.40;;;1.20;;
549;SDS011;20066;48.764;9.176;2023-11-19T13:29:26;2.00;;;1.10;;
549;SDS011;20066;48.764;9.176;2023-11-19T13:31:58;1.57;;;1.00;;
549;SDS011;20066;48.764;9.176;2023-11-19T13:34:26;2.93;;;1.27;;
549;SDS011;20066;48.764;9.176;2023-11-19T13:36:54;3.43;;;1.23;;
549;SDS011;20066;48.764;9.176;2023-11-19T13:39:23;3.37;;;1.30;;
549;SDS011;20066;48.764;9.176;2023-11-19T13:41:51;1.60;;;0.80;;
549;SDS011;20066;48.764;9.176;2023-11-19T13:44:38;4.93;;;1.00;;
549;SDS011;20066;48.764;9.176;2023-11-19T13:47:08;2.40;;;1.13;;
549;SDS011;20066;48.764;9.176;2023-11-19T13:49:37;3.97;;;1.00;;
549;SDS011;20066;48.764;9.176;2023-11-19T13:52:05;1.60;;;0.90;;
549;SDS011;20066;48.764;9.176;2023-11-19T13:54:33;1.20;;;0.90;;
549;SDS011;20066;48.764;9.176;2023-11-19T13:57:02;2.00;;;1.10;;
549;SDS011;20066;48.764;9.176;2023-11-19T13:59:30;3.93;;;1.10;;
549;SDS011;20066;48.764;9.176;2023-11-19T14:01:59;2.63;;;1.10;;
549;SDS011;20066;48.764;9.176;2023-11-19T14:04:29;2.10;;;1.07;;
549;SDS011;20066;48.764;9.176;2023-11-19T14:06:57;3.50;;;1.23;;
549;SDS011;20066;48.764;9.176;2023-11-19T14:09:25;1.83;;;1.10;;
549;SDS011;20066;48.764;9.176;2023-11-19T14:11:53;3.10;;;1.37;;
549;SDS011;20066;48.764;9.176;2023-11-19T14:14:21;2.07;;;1.23;;
549;SDS011;20066;48.764;9.176;2023-11-19T14:16:49;1.37;;;0.80;;
549;SDS011;20066;48.764;9.176;2023-11-19T14:19:17;2.53;;;1.40;;
549;SDS011;20066;48.764;9.176;2023-11-19T14:21:47;4.53;;;1.07;;
549;SDS011;20066;48.764;9.176;2023-11-19T14:24:15;1.70;;;1.23;;
549;SDS011;20066;48.764;9.176;2023-11-19T14:26:45;4.10;;;1.20;;
549;SDS011;20066;48.764;9.176;2023-11-19T14:29:13;2.40;;;1.10;;
549;SDS011;20066;48.764;9.176;2023-11-19T14:31:41;3.43;;;1.10;;
549;SDS011;20066;48.764;9.176;2023-11-19T14:34:08;1.73;;;1.10;;
549;SDS011;20066;48.764;9.176;2023-11-19T14:36:36;3.53;;;0.93;;
549;SDS011;20066;48.764;9.176;2023-11-19T14:39:06;2.57;;;1.10;;
549;SDS011;20066;48.764;9.176;2023-11-19T14:41:34;2.47;;;1.33;;
549;SDS011;20066;48.764;9.176;2023-11-19T14:44:01;2.73;;;1.37;;
549;SDS011;20066;48.764;9.176;2023-11-19T14:46:30;3.20;;;1.40;;
549;SDS011;20066;48.764;9.176;2023-11-19T14:48:58;4.03;;;1.50;;
549;SDS011;20066;48.764;9.176;2023-11-19T14:51:26;1.97;;;1.30;;
549;SDS011;20066;48.764;9.176;2023-11-19T14:53:55;1.77;;;1.00;;
549;SDS011;20066;48.764;9.176;2023-11-19T14:56:25;3.23;;;1.30;;
549;SDS011;20066;48.764;9.176;2023-11-19T14:58:53;2.10;;;1.00;;
549;SDS011;20066;48.764;9.176;2023-11-19T15:01:21;2.80;;;1.40;;
549;SDS011;20066;48.764;9.176;2023-11-19T15:03:49;3.03;;;1.40;;
549;SDS011;20066;48.764;9.176;2023-11-19T15:06:22;1.40;;;1.00;;
549;SDS011;20066;48.764;9.176;2023-11-19T15:08:51;2.93;;;1.20;;
549;SDS011;20066;48.764;9.176;2023-11-19T15:11:19;1.77;;;1.30;;
549;SDS011;20066;48.764;9.176;2023-11-19T15:13:48;1.80;;;1.17;;
549;SDS011;20066;48.764;9.176;2023-11-19T15:16:16;2.23;;;1.43;;
549;SDS011;20066;48.764;9.176;2023-11-19T15:18:51;1.73;;;1.40;;
549;SDS011;20066;48.764;9.176;2023-11-19T15:21:20;3.33;;;1.63;;
549;SDS011;20066;48.764;9.176;2023-11-19T15:23:48;1.40;;;1.20;;
549;SDS011;20066;48.764;9.176;2023-11-19T15:26:15;1.60;;;1.20;;
549;SDS011;20066;48.764;9.176;2023-11-19T15:28:44;3.70;;;1.90;;
549;SDS011;20066;48.764;9.176;2023-11-19T15:31:13;2.53;;;1.80;;
549;SDS011;20066;48.764;9.176;2023-11-19T15:33:42;3.67;;;1.40;;
549;SDS011;20066;48.764;9.176;2023-11-19T15:36:10;2.63;;;1.47;;